sensor_id;sensor_type;location;lat;lon;timestamp;P1;P2;P0
73861;PMS5003;63459;51.456;-0.916;2022-12-05T00:04:11;24;22;
73861;PMS5003;63459;51.456;-0.916;2022-12-05T00:06:36;24;24;
73861;PMS5003;63459;51.456;-0.916;2022-12-05T00:09:01;26;25;
73861;PMS5003;63459;51.456;-0.916;2022-12-05T00:11:27;22;20;
73861;PMS5003;63459;51.456;-0.916;2022-12-05T00:13:52;23;22;
73861;PMS5003;63459;51.456;-0.916;2022-12-05T00:16:18;28;26;
73861;PMS5003;63459;51.456;-0.916;2022-12-05T00:18:42;30;27;
73861;PMS5003;63459;51.456;-0.916;2022-12-05T00:21:13;30;27;
73861;PMS5003;63459;51.456;-0.916;2022-12-05T00:23:33;21;21;
73861;PMS5003;63459;51.456;-0.916;2022-12-05T00:28:23;27;25;
73861;PMS5003;63459;51.456;-0.916;2022-12-05T00:30:48;22;21;
73861;PMS5003;63459;51.456;-0.916;2022-12-05T00:33:14;26;25;
73861;PMS5003;63459;51.456;-0.916;2022-12-05T00:35:39;23;21;
73861;PMS5003;63459;51.456;-0.916;2022-12-05T00:38:05;20;18;
73861;PMS5003;63459;51.456;-0.916;2022-12-05T00:40:30;23;21;
73861;PMS5003;63459;51.456;-0.916;2022-12-05T00:45:21;22;22;
73861;PMS5003;63459;51.456;-0.916;2022-12-05T00:47:46;22;21;
73861;PMS5003;63459;51.456;-0.916;2022-12-05T00:52:37;26;25;
73861;PMS5003;63459;51.456;-0.916;2022-12-05T00:55:08;22;21;
73861;PMS5003;63459;51.456;-0.916;2022-12-05T00:57:33;24;24;
73861;PMS5003;63459;51.456;-0.916;2022-12-05T00:59:54;27;25;
73861;PMS5003;63459;51.456;-0.916;2022-12-05T01:02:19;20;20;
73861;PMS5003;63459;51.456;-0.916;2022-12-05T01:04:44;28;25;
73861;PMS5003;63459;51.456;-0.916;2022-12-05T01:07:10;23;22;
73861;PMS5003;63459;51.456;-0.916;2022-12-05T01:09:36;24;21;
73861;PMS5003;63459;51.456;-0.916;2022-12-05T01:14:26;25;24;
73861;PMS5003;63459;51.456;-0.916;2022-12-05T01:16:53;22;19;
73861;PMS5003;63459;51.456;-0.916;2022-12-05T01:19:19;26;23;
73861;PMS5003;63459;51.456;-0.916;2022-12-05T01:24:09;28;26;
73861;PMS5003;63459;51.456;-0.916;2022-12-05T01:26:34;29;28;
73861;PMS5003;63459;51.456;-0.916;2022-12-05T01:28:59;24;24;
73861;PMS5003;63459;51.456;-0.916;2022-12-05T01:31:26;26;22;
73861;PMS5003;63459;51.456;-0.916;2022-12-05T01:36:15;24;23;
73861;PMS5003;63459;51.456;-0.916;2022-12-05T01:38:41;25;25;
73861;PMS5003;63459;51.456;-0.916;2022-12-05T01:41:06;30;28;
73861;PMS5003;63459;51.456;-0.916;2022-12-05T01:43:31;30;29;
73861;PMS5003;63459;51.456;-0.916;2022-12-05T01:45:57;27;27;
73861;PMS5003;63459;51.456;-0.916;2022-12-05T01:48:22;25;23;
73861;PMS5003;63459;51.456;-0.916;2022-12-05T01:50:47;26;23;
73861;PMS5003;63459;51.456;-0.916;2022-12-05T01:53:12;25;24;
73861;PMS5003;63459;51.456;-0.916;2022-12-05T01:55:38;30;29;
73861;PMS5003;63459;51.456;-0.916;2022-12-05T01:58:04;29;28;
73861;PMS5003;63459;51.456;-0.916;2022-12-05T02:00:29;23;22;
73861;PMS5003;63459;51.456;-0.916;2022-12-05T02:02:54;39;33;
73861;PMS5003;63459;51.456;-0.916;2022-12-05T02:07:45;24;24;
73861;PMS5003;63459;51.456;-0.916;2022-12-05T02:10:10;34;32;
73861;PMS5003;63459;51.456;-0.916;2022-12-05T02:12:36;29;27;
73861;PMS5003;63459;51.456;-0.916;2022-12-05T02:15:05;36;34;
73861;PMS5003;63459;51.456;-0.916;2022-12-05T02:17:28;32;31;
73861;PMS5003;63459;51.456;-0.916;2022-12-05T02:27:14;30;27;
73861;PMS5003;63459;51.456;-0.916;2022-12-05T02:32:03;32;32;
73861;PMS5003;63459;51.456;-0.916;2022-12-05T02:34:26;31;30;
73861;PMS5003;63459;51.456;-0.916;2022-12-05T02:36:52;30;28;
73861;PMS5003;63459;51.456;-0.916;2022-12-05T02:39:16;29;28;
73861;PMS5003;63459;51.456;-0.916;2022-12-05T02:41:44;31;26;
73861;PMS5003;63459;51.456;-0.916;2022-12-05T02:46:33;32;30;
73861;PMS5003;63459;51.456;-0.916;2022-12-05T02:48:58;23;22;
73861;PMS5003;63459;51.456;-0.916;2022-12-05T02:51:23;25;23;
73861;PMS5003;63459;51.456;-0.916;2022-12-05T02:53:48;25;24;
73861;PMS5003;63459;51.456;-0.916;2022-12-05T02:58:40;30;28;
73861;PMS5003;63459;51.456;-0.916;2022-12-05T03:03:29;27;27;
73861;PMS5003;63459;51.456;-0.916;2022-12-05T03:05:57;23;22;
73861;PMS5003;63459;51.456;-0.916;2022-12-05T03:08:20;28;27;
73861;PMS5003;63459;51.456;-0.916;2022-12-05T03:10:45;29;28;
73861;PMS5003;63459;51.456;-0.916;2022-12-05T03:13:12;26;25;
73861;PMS5003;63459;51.456;-0.916;2022-12-05T03:18:03;25;24;
73861;PMS5003;63459;51.456;-0.916;2022-12-05T03:20:28;27;27;
73861;PMS5003;63459;51.456;-0.916;2022-12-05T03:22:53;29;27;
73861;PMS5003;63459;51.456;-0.916;2022-12-05T03:59:15;35;32;
73861;PMS5003;63459;51.456;-0.916;2022-12-05T04:01:39;31;29;
73861;PMS5003;63459;51.456;-0.916;2022-12-05T04:04:07;35;32;
73861;PMS5003;63459;51.456;-0.916;2022-12-05T04:08:56;36;33;
73861;PMS5003;63459;51.456;-0.916;2022-12-05T04:13:47;38;35;
73861;PMS5003;63459;51.456;-0.916;2022-12-05T04:16:13;35;35;
73861;PMS5003;63459;51.456;-0.916;2022-12-05T04:18:39;42;36;
73861;PMS5003;63459;51.456;-0.916;2022-12-05T04:21:03;31;30;
73861;PMS5003;63459;51.456;-0.916;2022-12-05T04:25:55;30;28;
73861;PMS5003;63459;51.456;-0.916;2022-12-05T04:28:22;34;32;
73861;PMS5003;63459;51.456;-0.916;2022-12-05T04:30:46;32;32;
73861;PMS5003;63459;51.456;-0.916;2022-12-05T04:33:12;31;29;
73861;PMS5003;63459;51.456;-0.916;2022-12-05T04:35:38;31;31;
73861;PMS5003;63459;51.456;-0.916;2022-12-05T04:40:28;29;29;
73861;PMS5003;63459;51.456;-0.916;2022-12-05T04:42:52;26;26;
73861;PMS5003;63459;51.456;-0.916;2022-12-05T04:45:18;27;26;
73861;PMS5003;63459;51.456;-0.916;2022-12-05T04:47:45;26;25;
73861;PMS5003;63459;51.456;-0.916;2022-12-05T04:50:09;26;26;
73861;PMS5003;63459;51.456;-0.916;2022-12-05T04:52:34;29;28;
73861;PMS5003;63459;51.456;-0.916;2022-12-05T04:55:01;31;31;
73861;PMS5003;63459;51.456;-0.916;2022-12-05T04:57:26;27;27;
73861;PMS5003;63459;51.456;-0.916;2022-12-05T04:59:51;31;31;
73861;PMS5003;63459;51.456;-0.916;2022-12-05T05:07:07;28;27;
73861;PMS5003;63459;51.456;-0.916;2022-12-05T05:09:32;28;26;
73861;PMS5003;63459;51.456;-0.916;2022-12-05T05:11:58;23;22;
73861;PMS5003;63459;51.456;-0.916;2022-12-05T05:16:48;26;26;
73861;PMS5003;63459;51.456;-0.916;2022-12-05T05:21:40;23;22;
73861;PMS5003;63459;51.456;-0.916;2022-12-05T05:24:05;26;26;
73861;PMS5003;63459;51.456;-0.916;2022-12-05T05:26:36;34;33;
73861;PMS5003;63459;51.456;-0.916;2022-12-05T05:28:56;36;35;
73861;PMS5003;63459;51.456;-0.916;2022-12-05T05:31:21;33;31;
73861;PMS5003;63459;51.456;-0.916;2022-12-05T05:33:47;29;27;
73861;PMS5003;63459;51.456;-0.916;2022-12-05T05:38:38;31;30;
73861;PMS5003;63459;51.456;-0.916;2022-12-05T05:41:03;30;28;
73861;PMS5003;63459;51.456;-0.916;2022-12-05T05:43:28;31;30;
73861;PMS5003;63459;51.456;-0.916;2022-12-05T05:45:53;30;28;
73861;PMS5003;63459;51.456;-0.916;2022-12-05T05:48:19;27;25;
73861;PMS5003;63459;51.456;-0.916;2022-12-05T05:50:45;29;27;
73861;PMS5003;63459;51.456;-0.916;2022-12-05T05:53:10;29;28;
73861;PMS5003;63459;51.456;-0.916;2022-12-05T05:55:37;24;21;
73861;PMS5003;63459;51.456;-0.916;2022-12-05T05:58:01;29;28;
73861;PMS5003;63459;51.456;-0.916;2022-12-05T06:02:52;24;24;
73861;PMS5003;63459;51.456;-0.916;2022-12-05T06:07:43;30;27;
73861;PMS5003;63459;51.456;-0.916;2022-12-05T06:12:34;24;23;
73861;PMS5003;63459;51.456;-0.916;2022-12-05T06:14:59;24;23;
73861;PMS5003;63459;51.456;-0.916;2022-12-05T06:17:25;27;26;
73861;PMS5003;63459;51.456;-0.916;2022-12-05T06:19:50;26;24;
73861;PMS5003;63459;51.456;-0.916;2022-12-05T06:22:16;25;23;
73861;PMS5003;63459;51.456;-0.916;2022-12-05T06:24:41;29;26;
73861;PMS5003;63459;51.456;-0.916;2022-12-05T06:27:06;25;24;
73861;PMS5003;63459;51.456;-0.916;2022-12-05T06:29:32;27;25;
73861;PMS5003;63459;51.456;-0.916;2022-12-05T06:31:57;31;30;
73861;PMS5003;63459;51.456;-0.916;2022-12-05T06:34:22;28;26;
73861;PMS5003;63459;51.456;-0.916;2022-12-05T06:39:13;28;24;
73861;PMS5003;63459;51.456;-0.916;2022-12-05T06:44:03;23;23;
73861;PMS5003;63459;51.456;-0.916;2022-12-05T06:46:29;23;21;
73861;PMS5003;63459;51.456;-0.916;2022-12-05T06:48:55;22;21;
73861;PMS5003;63459;51.456;-0.916;2022-12-05T06:51:20;27;26;
73861;PMS5003;63459;51.456;-0.916;2022-12-05T06:53:45;19;18;
73861;PMS5003;63459;51.456;-0.916;2022-12-05T06:56:12;26;25;
73861;PMS5003;63459;51.456;-0.916;2022-12-05T06:58:36;21;20;
73861;PMS5003;63459;51.456;-0.916;2022-12-05T07:01:02;26;25;
73861;PMS5003;63459;51.456;-0.916;2022-12-05T07:03:27;21;20;
73861;PMS5003;63459;51.456;-0.916;2022-12-05T07:08:17;22;19;
73861;PMS5003;63459;51.456;-0.916;2022-12-05T07:13:08;19;18;
73861;PMS5003;63459;51.456;-0.916;2022-12-05T07:15:33;20;20;
73861;PMS5003;63459;51.456;-0.916;2022-12-05T07:17:59;24;23;
73861;PMS5003;63459;51.456;-0.916;2022-12-05T07:20:24;22;22;
73861;PMS5003;63459;51.456;-0.916;2022-12-05T07:22:50;27;26;
73861;PMS5003;63459;51.456;-0.916;2022-12-05T07:25:15;20;19;
73861;PMS5003;63459;51.456;-0.916;2022-12-05T07:27:40;24;23;
73861;PMS5003;63459;51.456;-0.916;2022-12-05T07:30:06;16;15;
73861;PMS5003;63459;51.456;-0.916;2022-12-05T07:32:32;25;23;
73861;PMS5003;63459;51.456;-0.916;2022-12-05T07:34:57;21;19;
73861;PMS5003;63459;51.456;-0.916;2022-12-05T07:37:23;19;18;
73861;PMS5003;63459;51.456;-0.916;2022-12-05T07:42:14;17;17;
73861;PMS5003;63459;51.456;-0.916;2022-12-05T07:44:39;22;21;
73861;PMS5003;63459;51.456;-0.916;2022-12-05T07:47:05;22;22;
73861;PMS5003;63459;51.456;-0.916;2022-12-05T07:49:30;18;17;
73861;PMS5003;63459;51.456;-0.916;2022-12-05T07:51:55;17;17;
73861;PMS5003;63459;51.456;-0.916;2022-12-05T07:54:21;18;15;
73861;PMS5003;63459;51.456;-0.916;2022-12-05T07:56:46;18;18;
73861;PMS5003;63459;51.456;-0.916;2022-12-05T07:59:11;22;20;
73861;PMS5003;63459;51.456;-0.916;2022-12-05T08:01:36;21;20;
73861;PMS5003;63459;51.456;-0.916;2022-12-05T08:04:02;29;28;
73861;PMS5003;63459;51.456;-0.916;2022-12-05T08:06:28;22;20;
73861;PMS5003;63459;51.456;-0.916;2022-12-05T08:08:54;22;20;
73861;PMS5003;63459;51.456;-0.916;2022-12-05T08:11:20;23;22;
73861;PMS5003;63459;51.456;-0.916;2022-12-05T08:13:45;29;27;
73861;PMS5003;63459;51.456;-0.916;2022-12-05T08:16:11;18;18;
73861;PMS5003;63459;51.456;-0.916;2022-12-05T08:18:36;17;16;
73861;PMS5003;63459;51.456;-0.916;2022-12-05T08:21:02;21;18;
73861;PMS5003;63459;51.456;-0.916;2022-12-05T08:23:27;19;18;
73861;PMS5003;63459;51.456;-0.916;2022-12-05T08:25:52;17;17;
73861;PMS5003;63459;51.456;-0.916;2022-12-05T08:28:17;22;20;
73861;PMS5003;63459;51.456;-0.916;2022-12-05T08:30:43;17;16;
73861;PMS5003;63459;51.456;-0.916;2022-12-05T08:33:08;14;14;
73861;PMS5003;63459;51.456;-0.916;2022-12-05T08:37:59;15;14;
73861;PMS5003;63459;51.456;-0.916;2022-12-05T08:40:24;13;13;
73861;PMS5003;63459;51.456;-0.916;2022-12-05T08:42:50;19;18;
73861;PMS5003;63459;51.456;-0.916;2022-12-05T08:47:40;22;21;
73861;PMS5003;63459;51.456;-0.916;2022-12-05T08:50:06;16;15;
73861;PMS5003;63459;51.456;-0.916;2022-12-05T08:52:31;18;17;
73861;PMS5003;63459;51.456;-0.916;2022-12-05T08:54:56;19;19;
73861;PMS5003;63459;51.456;-0.916;2022-12-05T08:57:22;19;18;
73861;PMS5003;63459;51.456;-0.916;2022-12-05T08:59:47;19;18;
73861;PMS5003;63459;51.456;-0.916;2022-12-05T09:02:12;18;17;
73861;PMS5003;63459;51.456;-0.916;2022-12-05T09:04:38;16;16;
73861;PMS5003;63459;51.456;-0.916;2022-12-05T09:07:03;17;16;
73861;PMS5003;63459;51.456;-0.916;2022-12-05T09:09:29;16;15;
73861;PMS5003;63459;51.456;-0.916;2022-12-05T09:11:54;17;16;
73861;PMS5003;63459;51.456;-0.916;2022-12-05T09:14:19;15;14;
73861;PMS5003;63459;51.456;-0.916;2022-12-05T09:16:45;19;17;
73861;PMS5003;63459;51.456;-0.916;2022-12-05T09:19:11;21;21;
73861;PMS5003;63459;51.456;-0.916;2022-12-05T09:21:36;20;18;
73861;PMS5003;63459;51.456;-0.916;2022-12-05T09:24:02;18;17;
73861;PMS5003;63459;51.456;-0.916;2022-12-05T09:26:28;19;19;
73861;PMS5003;63459;51.456;-0.916;2022-12-05T09:28:53;20;20;
73861;PMS5003;63459;51.456;-0.916;2022-12-05T09:33:44;16;16;
73861;PMS5003;63459;51.456;-0.916;2022-12-05T09:36:10;22;20;
73861;PMS5003;63459;51.456;-0.916;2022-12-05T09:38:35;18;18;
73861;PMS5003;63459;51.456;-0.916;2022-12-05T09:41:02;21;18;
73861;PMS5003;63459;51.456;-0.916;2022-12-05T09:43:26;19;19;
73861;PMS5003;63459;51.456;-0.916;2022-12-05T09:45:53;19;18;
73861;PMS5003;63459;51.456;-0.916;2022-12-05T09:48:18;19;18;
73861;PMS5003;63459;51.456;-0.916;2022-12-05T09:50:43;22;21;
73861;PMS5003;63459;51.456;-0.916;2022-12-05T09:53:10;18;18;
73861;PMS5003;63459;51.456;-0.916;2022-12-05T09:55:34;22;18;
73861;PMS5003;63459;51.456;-0.916;2022-12-05T09:57:58;19;18;
73861;PMS5003;63459;51.456;-0.916;2022-12-05T10:00:23;18;17;
73861;PMS5003;63459;51.456;-0.916;2022-12-05T10:02:53;24;22;
73861;PMS5003;63459;51.456;-0.916;2022-12-05T10:05:15;20;19;
73861;PMS5003;63459;51.456;-0.916;2022-12-05T10:07:40;20;19;
73861;PMS5003;63459;51.456;-0.916;2022-12-05T10:10:11;23;21;
73861;PMS5003;63459;51.456;-0.916;2022-12-05T10:14:57;18;17;
73861;PMS5003;63459;51.456;-0.916;2022-12-05T10:17:22;23;19;
73861;PMS5003;63459;51.456;-0.916;2022-12-05T10:19:45;20;18;
73861;PMS5003;63459;51.456;-0.916;2022-12-05T10:22:12;18;17;
73861;PMS5003;63459;51.456;-0.916;2022-12-05T10:24:37;24;23;
73861;PMS5003;63459;51.456;-0.916;2022-12-05T10:27:03;27;26;
73861;PMS5003;63459;51.456;-0.916;2022-12-05T10:29:28;25;23;
73861;PMS5003;63459;51.456;-0.916;2022-12-05T10:31:53;20;18;
73861;PMS5003;63459;51.456;-0.916;2022-12-05T10:34:25;22;22;
73861;PMS5003;63459;51.456;-0.916;2022-12-05T10:36:44;18;17;
73861;PMS5003;63459;51.456;-0.916;2022-12-05T10:39:09;28;26;
73861;PMS5003;63459;51.456;-0.916;2022-12-05T10:41:34;26;25;
73861;PMS5003;63459;51.456;-0.916;2022-12-05T10:43:59;28;27;
73861;PMS5003;63459;51.456;-0.916;2022-12-05T10:46:25;27;25;
73861;PMS5003;63459;51.456;-0.916;2022-12-05T10:51:16;23;20;
73861;PMS5003;63459;51.456;-0.916;2022-12-05T10:53:42;26;24;
73861;PMS5003;63459;51.456;-0.916;2022-12-05T10:58:31;21;21;
73861;PMS5003;63459;51.456;-0.916;2022-12-05T11:01:06;20;20;
73861;PMS5003;63459;51.456;-0.916;2022-12-05T11:03:24;20;20;
73861;PMS5003;63459;51.456;-0.916;2022-12-05T11:05:48;19;19;
73861;PMS5003;63459;51.456;-0.916;2022-12-05T11:08:16;27;22;
73861;PMS5003;63459;51.456;-0.916;2022-12-05T11:10:38;20;19;
73861;PMS5003;63459;51.456;-0.916;2022-12-05T11:13:13;19;18;
73861;PMS5003;63459;51.456;-0.916;2022-12-05T11:15:30;21;19;
73861;PMS5003;63459;51.456;-0.916;2022-12-05T11:17:55;26;25;
73861;PMS5003;63459;51.456;-0.916;2022-12-05T11:22:46;20;19;
73861;PMS5003;63459;51.456;-0.916;2022-12-05T11:27:36;30;28;
73861;PMS5003;63459;51.456;-0.916;2022-12-05T11:30:03;29;26;
73861;PMS5003;63459;51.456;-0.916;2022-12-05T11:32:29;23;22;
73861;PMS5003;63459;51.456;-0.916;2022-12-05T11:37:19;19;17;
73861;PMS5003;63459;51.456;-0.916;2022-12-05T11:39:44;19;19;
73861;PMS5003;63459;51.456;-0.916;2022-12-05T11:42:15;17;17;
73861;PMS5003;63459;51.456;-0.916;2022-12-05T11:44:40;21;19;
73861;PMS5003;63459;51.456;-0.916;2022-12-05T11:47:04;17;17;
73861;PMS5003;63459;51.456;-0.916;2022-12-05T11:54:24;20;20;
73861;PMS5003;63459;51.456;-0.916;2022-12-05T11:56:43;25;25;
73861;PMS5003;63459;51.456;-0.916;2022-12-05T11:59:11;18;17;
73861;PMS5003;63459;51.456;-0.916;2022-12-05T12:01:34;17;17;
73861;PMS5003;63459;51.456;-0.916;2022-12-05T12:04:08;21;20;
73861;PMS5003;63459;51.456;-0.916;2022-12-05T12:06:40;23;21;
